sensor_id;sensor_type;location;lat;lon;timestamp;P1;durP1;ratioP1;P2;durP2;ratioP2
72095;SDS011;59968;51.084;16.748;2023-10-08T00:01:38;1.50;;;0.70;;
72095;SDS011;59968;51.084;16.748;2023-10-08T00:04:10;1.00;;;0.70;;
72095;SDS011;59968;51.084;16.748;2023-10-08T00:06:39;1.30;;;0.60;;
72095;SDS011;59968;51.084;16.748;2023-10-08T00:09:09;1.60;;;0.80;;
72095;SDS011;59968;51.084;16.748;2023-10-08T00:11:39;0.80;;;0.70;;
72095;SDS011;59968;51.084;16.748;2023-10-08T00:14:08;1.30;;;0.90;;
72095;SDS011;59968;51.084;16.748;2023-10-08T00:16:38;1.30;;;0.80;;
72095;SDS011;59968;51.084;16.748;2023-10-08T00:19:08;0.50;;;0.50;;
72095;SDS011;59968;51.084;16.748;2023-10-08T00:21:39;0.90;;;0.80;;
72095;SDS011;59968;51.084;16.748;2023-10-08T00:24:08;1.90;;;0.60;;
72095;SDS011;59968;51.084;16.748;2023-10-08T00:26:37;0.90;;;0.60;;
72095;SDS011;59968;51.084;16.748;2023-10-08T00:29:08;1.10;;;0.70;;
72095;SDS011;59968;51.084;16.748;2023-10-08T00:31:58;0.90;;;0.70;;
72095;SDS011;59968;51.084;16.748;2023-10-08T00:34:26;0.70;;;0.60;;
72095;SDS011;59968;51.084;16.748;2023-10-08T00:36:55;1.70;;;0.70;;
72095;SDS011;59968;51.084;16.748;2023-10-08T00:39:24;1.80;;;0.70;;
72095;SDS011;59968;51.084;16.748;2023-10-08T00:41:52;1.70;;;0.60;;
72095;SDS011;59968;51.084;16.748;2023-10-08T00:44:28;0.70;;;0.50;;
72095;SDS011;59968;51.084;16.748;2023-10-08T00:47:04;0.70;;;0.60;;
72095;SDS011;59968;51.084;16.748;2023-10-08T00:49:33;1.10;;;0.50;;
72095;SDS011;59968;51.084;16.748;2023-10-08T00:52:11;1.30;;;0.70;;
72095;SDS011;59968;51.084;16.748;2023-10-08T00:54:41;1.40;;;0.70;;
72095;SDS011;59968;51.084;16.748;2023-10-08T00:57:30;1.00;;;0.60;;
72095;SDS011;59968;51.084;16.748;2023-10-08T01:00:05;1.30;;;0.50;;
72095;SDS011;59968;51.084;16.748;2023-10-08T01:02:35;1.00;;;0.70;;
72095;SDS011;59968;51.084;16.748;2023-10-08T01:05:23;1.00;;;0.60;;
72095;SDS011;59968;51.084;16.748;2023-10-08T01:07:56;1.50;;;0.50;;
72095;SDS011;59968;51.084;16.748;2023-10-08T01:10:26;1.90;;;0.60;;
72095;SDS011;59968;51.084;16.748;2023-10-08T01:12:55;1.50;;;0.60;;
72095;SDS011;59968;51.084;16.748;2023-10-08T01:15:29;0.90;;;0.60;;
72095;SDS011;59968;51.084;16.748;2023-10-08T01:17:58;0.80;;;0.60;;
72095;SDS011;59968;51.084;16.748;2023-10-08T01:20:33;0.90;;;0.70;;
72095;SDS011;59968;51.084;16.748;2023-10-08T01:23:11;0.70;;;0.70;;
72095;SDS011;59968;51.084;16.748;2023-10-08T01:25:45;0.90;;;0.50;;
72095;SDS011;59968;51.084;16.748;2023-10-08T01:28:34;2.40;;;0.70;;
72095;SDS011;59968;51.084;16.748;2023-10-08T01:31:03;1.20;;;0.80;;
72095;SDS011;59968;51.084;16.748;2023-10-08T01:33:32;0.80;;;0.50;;
72095;SDS011;59968;51.084;16.748;2023-10-08T01:36:15;0.70;;;0.50;;
72095;SDS011;59968;51.084;16.748;2023-10-08T01:38:43;0.80;;;0.50;;
72095;SDS011;59968;51.084;16.748;2023-10-08T01:41:17;0.60;;;0.60;;
72095;SDS011;59968;51.084;16.748;2023-10-08T01:43:57;0.60;;;0.50;;
72095;SDS011;59968;51.084;16.748;2023-10-08T01:46:27;1.00;;;0.60;;
72095;SDS011;59968;51.084;16.748;2023-10-08T01:48:56;0.50;;;0.50;;
72095;SDS011;59968;51.084;16.748;2023-10-08T01:51:32;1.50;;;0.70;;
72095;SDS011;59968;51.084;16.748;2023-10-08T01:54:05;0.70;;;0.60;;
72095;SDS011;59968;51.084;16.748;2023-10-08T01:56:41;0.90;;;0.50;;
72095;SDS011;59968;51.084;16.748;2023-10-08T01:59:11;0.50;;;0.40;;
72095;SDS011;59968;51.084;16.748;2023-10-08T02:01:43;1.10;;;0.60;;
72095;SDS011;59968;51.084;16.748;2023-10-08T02:04:13;1.50;;;0.70;;
72095;SDS011;59968;51.084;16.748;2023-10-08T02:06:46;0.70;;;0.50;;
72095;SDS011;59968;51.084;16.748;2023-10-08T02:09:14;0.70;;;0.50;;
72095;SDS011;59968;51.084;16.748;2023-10-08T02:11:44;0.70;;;0.70;;
72095;SDS011;59968;51.084;16.748;2023-10-08T02:14:14;0.80;;;0.60;;
72095;SDS011;59968;51.084;16.748;2023-10-08T02:16:43;1.30;;;0.50;;
72095;SDS011;59968;51.084;16.748;2023-10-08T02:19:13;0.40;;;0.40;;
72095;SDS011;59968;51.084;16.748;2023-10-08T02:21:46;0.70;;;0.60;;
72095;SDS011;59968;51.084;16.748;2023-10-08T02:24:15;0.60;;;0.50;;
72095;SDS011;59968;51.084;16.748;2023-10-08T02:26:43;1.00;;;0.50;;
72095;SDS011;59968;51.084;16.748;2023-10-08T02:29:11;1.10;;;0.80;;
72095;SDS011;59968;51.084;16.748;2023-10-08T02:31:40;0.70;;;0.70;;
72095;SDS011;59968;51.084;16.748;2023-10-08T02:34:09;2.70;;;0.70;;
72095;SDS011;59968;51.084;16.748;2023-10-08T02:36:40;0.80;;;0.50;;
72095;SDS011;59968;51.084;16.748;2023-10-08T02:39:11;0.90;;;0.70;;
72095;SDS011;59968;51.084;16.748;2023-10-08T02:41:44;5.00;;;0.60;;
72095;SDS011;59968;51.084;16.748;2023-10-08T02:44:16;1.40;;;0.50;;
72095;SDS011;59968;51.084;16.748;2023-10-08T02:46:45;2.40;;;0.70;;
72095;SDS011;59968;51.084;16.748;2023-10-08T02:49:16;1.10;;;0.50;;
72095;SDS011;59968;51.084;16.748;2023-10-08T02:51:52;0.70;;;0.40;;
72095;SDS011;59968;51.084;16.748;2023-10-08T02:54:22;2.20;;;0.70;;
72095;SDS011;59968;51.084;16.748;2023-10-08T02:56:53;1.40;;;0.70;;
72095;SDS011;59968;51.084;16.748;2023-10-08T02:59:32;1.40;;;0.60;;
72095;SDS011;59968;51.084;16.748;2023-10-08T03:02:10;1.30;;;0.60;;
72095;SDS011;59968;51.084;16.748;2023-10-08T03:04:51;3.70;;;0.70;;
72095;SDS011;59968;51.084;16.748;2023-10-08T03:07:21;2.80;;;0.80;;
72095;SDS011;59968;51.084;16.748;2023-10-08T03:09:52;2.60;;;0.60;;
72095;SDS011;59968;51.084;16.748;2023-10-08T03:12:45;3.00;;;1.00;;
72095;SDS011;59968;51.084;16.748;2023-10-08T03:15:14;1.70;;;0.70;;
72095;SDS011;59968;51.084;16.748;2023-10-08T03:18:06;2.30;;;0.70;;
72095;SDS011;59968;51.084;16.748;2023-10-08T03:20:38;1.40;;;0.70;;
72095;SDS011;59968;51.084;16.748;2023-10-08T03:23:07;2.50;;;0.70;;
72095;SDS011;59968;51.084;16.748;2023-10-08T03:25:41;4.30;;;1.00;;
72095;SDS011;59968;51.084;16.748;2023-10-08T03:28:10;2.00;;;1.20;;
72095;SDS011;59968;51.084;16.748;2023-10-08T03:30:44;2.80;;;0.90;;
72095;SDS011;59968;51.084;16.748;2023-10-08T03:33:19;3.00;;;0.80;;
72095;SDS011;59968;51.084;16.748;2023-10-08T03:35:52;4.20;;;1.00;;
72095;SDS011;59968;51.084;16.748;2023-10-08T03:38:23;3.80;;;1.00;;
72095;SDS011;59968;51.084;16.748;2023-10-08T03:41:27;2.10;;;0.90;;
72095;SDS011;59968;51.084;16.748;2023-10-08T03:43:56;3.50;;;0.90;;
72095;SDS011;59968;51.084;16.748;2023-10-08T03:46:33;2.30;;;0.80;;
72095;SDS011;59968;51.084;16.748;2023-10-08T03:49:11;3.10;;;0.80;;
72095;SDS011;59968;51.084;16.748;2023-10-08T03:51:49;3.20;;;1.00;;
72095;SDS011;59968;51.084;16.748;2023-10-08T03:54:21;4.30;;;1.10;;
72095;SDS011;59968;51.084;16.748;2023-10-08T03:57:02;3.20;;;0.80;;
72095;SDS011;59968;51.084;16.748;2023-10-08T03:59:41;3.90;;;1.10;;
72095;SDS011;59968;51.084;16.748;2023-10-08T04:02:10;3.40;;;1.00;;
72095;SDS011;59968;51.084;16.748;2023-10-08T04:04:43;6.80;;;1.40;;
72095;SDS011;59968;51.084;16.748;2023-10-08T04:07:20;3.40;;;0.90;;
72095;SDS011;59968;51.084;16.748;2023-10-08T04:10:01;2.80;;;1.10;;
72095;SDS011;59968;51.084;16.748;2023-10-08T04:12:36;1.70;;;0.80;;
72095;SDS011;59968;51.084;16.748;2023-10-08T04:15:12;2.50;;;1.00;;
72095;SDS011;59968;51.084;16.748;2023-10-08T04:17:45;3.20;;;0.90;;
72095;SDS011;59968;51.084;16.748;2023-10-08T04:20:19;3.60;;;1.10;;
72095;SDS011;59968;51.084;16.748;2023-10-08T04:23:08;4.20;;;1.20;;
72095;SDS011;59968;51.084;16.748;2023-10-08T04:25:49;5.10;;;1.20;;
72095;SDS011;59968;51.084;16.748;2023-10-08T04:28:23;5.30;;;1.00;;
72095;SDS011;59968;51.084;16.748;2023-10-08T04:30:57;5.60;;;1.20;;
72095;SDS011;59968;51.084;16.748;2023-10-08T04:33:30;3.10;;;0.90;;
72095;SDS011;59968;51.084;16.748;2023-10-08T04:36:02;3.30;;;0.90;;
72095;SDS011;59968;51.084;16.748;2023-10-08T04:38:31;4.90;;;1.10;;
72095;SDS011;59968;51.084;16.748;2023-10-08T04:41:07;6.00;;;1.00;;
72095;SDS011;59968;51.084;16.748;2023-10-08T04:43:39;3.90;;;1.30;;
72095;SDS011;59968;51.084;16.748;2023-10-08T04:46:11;4.00;;;1.10;;
72095;SDS011;59968;51.084;16.748;2023-10-08T04:49:02;4.00;;;1.10;;
72095;SDS011;59968;51.084;16.748;2023-10-08T04:51:35;2.30;;;0.80;;
72095;SDS011;59968;51.084;16.748;2023-10-08T04:54:12;4.40;;;0.90;;
72095;SDS011;59968;51.084;16.748;2023-10-08T04:56:44;5.30;;;1.10;;
72095;SDS011;59968;51.084;16.748;2023-10-08T04:59:13;3.30;;;0.80;;
72095;SDS011;59968;51.084;16.748;2023-10-08T05:01:42;5.40;;;0.90;;
72095;SDS011;59968;51.084;16.748;2023-10-08T05:04:24;4.10;;;1.10;;
72095;SDS011;59968;51.084;16.748;2023-10-08T05:07:01;4.10;;;0.80;;
72095;SDS011;59968;51.084;16.748;2023-10-08T05:09:45;4.00;;;1.30;;
72095;SDS011;59968;51.084;16.748;2023-10-08T05:12:34;5.40;;;1.00;;
72095;SDS011;59968;51.084;16.748;2023-10-08T05:15:06;4.70;;;1.10;;
72095;SDS011;59968;51.084;16.748;2023-10-08T05:17:44;4.90;;;1.10;;
72095;SDS011;59968;51.084;16.748;2023-10-08T05:20:26;3.60;;;1.20;;
72095;SDS011;59968;51.084;16.748;2023-10-08T05:23:13;3.00;;;1.00;;
72095;SDS011;59968;51.084;16.748;2023-10-08T05:26:00;4.00;;;1.00;;
72095;SDS011;59968;51.084;16.748;2023-10-08T05:28:37;2.30;;;0.70;;
72095;SDS011;59968;51.084;16.748;2023-10-08T05:31:29;3.20;;;0.90;;
72095;SDS011;59968;51.084;16.748;2023-10-08T05:34:13;3.10;;;1.20;;
72095;SDS011;59968;51.084;16.748;2023-10-08T05:36:51;3.90;;;1.10;;
72095;SDS011;59968;51.084;16.748;2023-10-08T05:39:32;5.70;;;1.20;;
72095;SDS011;59968;51.084;16.748;2023-10-08T05:42:07;4.80;;;1.10;;
72095;SDS011;59968;51.084;16.748;2023-10-08T05:44:48;5.20;;;1.10;;
72095;SDS011;59968;51.084;16.748;2023-10-08T05:47:36;5.00;;;1.20;;
72095;SDS011;59968;51.084;16.748;2023-10-08T05:50:05;6.00;;;1.80;;
72095;SDS011;59968;51.084;16.748;2023-10-08T05:52:46;6.10;;;1.30;;
72095;SDS011;59968;51.084;16.748;2023-10-08T05:55:21;6.10;;;1.50;;
72095;SDS011;59968;51.084;16.748;2023-10-08T05:58:06;5.30;;;1.30;;
72095;SDS011;59968;51.084;16.748;2023-10-08T06:00:47;4.60;;;1.10;;
72095;SDS011;59968;51.084;16.748;2023-10-08T06:03:19;5.60;;;1.40;;
72095;SDS011;59968;51.084;16.748;2023-10-08T06:06:02;4.70;;;1.40;;
72095;SDS011;59968;51.084;16.748;2023-10-08T06:08:44;4.20;;;1.60;;
72095;SDS011;59968;51.084;16.748;2023-10-08T06:11:19;3.90;;;1.50;;
72095;SDS011;59968;51.084;16.748;2023-10-08T06:14:05;4.90;;;1.80;;
72095;SDS011;59968;51.084;16.748;2023-10-08T06:16:54;4.80;;;1.60;;
72095;SDS011;59968;51.084;16.748;2023-10-08T06:19:42;5.20;;;2.30;;
72095;SDS011;59968;51.084;16.748;2023-10-08T06:22:11;5.30;;;2.00;;
72095;SDS011;59968;51.084;16.748;2023-10-08T06:24:40;7.80;;;2.20;;
72095;SDS011;59968;51.084;16.748;2023-10-08T06:27:09;6.50;;;2.20;;
72095;SDS011;59968;51.084;16.748;2023-10-08T06:29:45;6.70;;;2.50;;
72095;SDS011;59968;51.084;16.748;2023-10-08T06:32:14;8.60;;;2.80;;
72095;SDS011;59968;51.084;16.748;2023-10-08T06:34:43;7.00;;;2.60;;
72095;SDS011;59968;51.084;16.748;2023-10-08T06:37:13;6.40;;;2.00;;
72095;SDS011;59968;51.084;16.748;2023-10-08T06:39:44;7.30;;;2.40;;
72095;SDS011;59968;51.084;16.748;2023-10-08T06:42:15;7.30;;;3.00;;
72095;SDS011;59968;51.084;16.748;2023-10-08T06:44:45;8.00;;;3.70;;
72095;SDS011;59968;51.084;16.748;2023-10-08T06:47:17;7.10;;;2.40;;
72095;SDS011;59968;51.084;16.748;2023-10-08T06:49:51;9.10;;;2.90;;
72095;SDS011;59968;51.084;16.748;2023-10-08T06:52:20;6.70;;;2.80;;
72095;SDS011;59968;51.084;16.748;2023-10-08T06:54:49;6.30;;;2.90;;
72095;SDS011;59968;51.084;16.748;2023-10-08T06:57:22;7.50;;;3.00;;
72095;SDS011;59968;51.084;16.748;2023-10-08T06:59:55;5.20;;;2.90;;
72095;SDS011;59968;51.084;16.748;2023-10-08T07:02:24;5.00;;;2.00;;
72095;SDS011;59968;51.084;16.748;2023-10-08T07:04:55;8.30;;;3.00;;
72095;SDS011;59968;51.084;16.748;2023-10-08T07:07:25;7.30;;;3.20;;
72095;SDS011;59968;51.084;16.748;2023-10-08T07:09:57;6.60;;;2.60;;
72095;SDS011;59968;51.084;16.748;2023-10-08T07:12:28;12.20;;;3.50;;
72095;SDS011;59968;51.084;16.748;2023-10-08T07:14:57;6.20;;;2.30;;
72095;SDS011;59968;51.084;16.748;2023-10-08T07:17:27;5.70;;;3.00;;
72095;SDS011;59968;51.084;16.748;2023-10-08T07:20:06;5.50;;;2.90;;
72095;SDS011;59968;51.084;16.748;2023-10-08T07:22:42;6.90;;;3.40;;
72095;SDS011;59968;51.084;16.748;2023-10-08T07:25:12;6.20;;;2.70;;
72095;SDS011;59968;51.084;16.748;2023-10-08T07:27:48;6.50;;;3.20;;
72095;SDS011;59968;51.084;16.748;2023-10-08T07:30:16;6.20;;;2.70;;
72095;SDS011;59968;51.084;16.748;2023-10-08T07:32:55;6.80;;;2.70;;
72095;SDS011;59968;51.084;16.748;2023-10-08T07:35:27;5.40;;;2.80;;
72095;SDS011;59968;51.084;16.748;2023-10-08T07:37:59;5.20;;;2.30;;
72095;SDS011;59968;51.084;16.748;2023-10-08T07:40:28;5.40;;;1.80;;
72095;SDS011;59968;51.084;16.748;2023-10-08T07:42:59;4.60;;;1.80;;
72095;SDS011;59968;51.084;16.748;2023-10-08T07:45:37;5.30;;;2.20;;
72095;SDS011;59968;51.084;16.748;2023-10-08T07:48:06;4.90;;;2.20;;
72095;SDS011;59968;51.084;16.748;2023-10-08T07:50:42;3.70;;;1.80;;
72095;SDS011;59968;51.084;16.748;2023-10-08T07:53:12;4.70;;;2.10;;
72095;SDS011;59968;51.084;16.748;2023-10-08T07:55:46;6.90;;;2.60;;
72095;SDS011;59968;51.084;16.748;2023-10-08T07:58:19;3.90;;;2.10;;
72095;SDS011;59968;51.084;16.748;2023-10-08T08:00:48;5.10;;;2.60;;
72095;SDS011;59968;51.084;16.748;2023-10-08T08:03:21;5.80;;;2.00;;
72095;SDS011;59968;51.084;16.748;2023-10-08T08:05:50;4.40;;;2.10;;
72095;SDS011;59968;51.084;16.748;2023-10-08T08:08:21;2.90;;;1.60;;
72095;SDS011;59968;51.084;16.748;2023-10-08T08:10:52;3.90;;;1.50;;
72095;SDS011;59968;51.084;16.748;2023-10-08T08:13:26;3.40;;;1.30;;
72095;SDS011;59968;51.084;16.748;2023-10-08T08:15:56;2.50;;;1.40;;
72095;SDS011;59968;51.084;16.748;2023-10-08T08:18:27;2.00;;;1.20;;
72095;SDS011;59968;51.084;16.748;2023-10-08T08:21:01;2.40;;;1.10;;
72095;SDS011;59968;51.084;16.748;2023-10-08T08:23:30;2.30;;;1.20;;
72095;SDS011;59968;51.084;16.748;2023-10-08T08:26:00;1.90;;;0.90;;
72095;SDS011;59968;51.084;16.748;2023-10-08T08:28:31;2.30;;;0.90;;
72095;SDS011;59968;51.084;16.748;2023-10-08T08:31:03;2.00;;;1.00;;
72095;SDS011;59968;51.084;16.748;2023-10-08T08:33:42;2.10;;;0.70;;
72095;SDS011;59968;51.084;16.748;2023-10-08T08:36:28;1.90;;;1.10;;
72095;SDS011;59968;51.084;16.748;2023-10-08T08:39:00;2.90;;;1.20;;
72095;SDS011;59968;51.084;16.748;2023-10-08T08:41:29;3.50;;;1.10;;
72095;SDS011;59968;51.084;16.748;2023-10-08T08:43:58;3.70;;;0.80;;
72095;SDS011;59968;51.084;16.748;2023-10-08T08:46:28;2.80;;;1.30;;
72095;SDS011;59968;51.084;16.748;2023-10-08T08:49:06;2.00;;;1.00;;
72095;SDS011;59968;51.084;16.748;2023-10-08T08:51:36;2.40;;;1.00;;
72095;SDS011;59968;51.084;16.748;2023-10-08T08:54:06;1.20;;;0.80;;
72095;SDS011;59968;51.084;16.748;2023-10-08T08:56:35;2.60;;;1.10;;
72095;SDS011;59968;51.084;16.748;2023-10-08T08:59:06;1.80;;;1.00;;
72095;SDS011;59968;51.084;16.748;2023-10-08T09:01:43;3.10;;;1.00;;
72095;SDS011;59968;51.084;16.748;2023-10-08T09:04:14;1.40;;;1.10;;
72095;SDS011;59968;51.084;16.748;2023-10-08T09:06:45;1.90;;;0.90;;
72095;SDS011;59968;51.084;16.748;2023-10-08T09:09:14;3.30;;;1.00;;
72095;SDS011;59968;51.084;16.748;2023-10-08T09:11:51;2.20;;;0.80;;
72095;SDS011;59968;51.084;16.748;2023-10-08T09:14:22;2.60;;;0.90;;
72095;SDS011;59968;51.084;16.748;2023-10-08T09:16:53;2.50;;;0.80;;
72095;SDS011;59968;51.084;16.748;2023-10-08T09:19:26;1.80;;;0.80;;
72095;SDS011;59968;51.084;16.748;2023-10-08T09:22:09;1.40;;;0.90;;
72095;SDS011;59968;51.084;16.748;2023-10-08T09:24:41;1.40;;;0.70;;
72095;SDS011;59968;51.084;16.748;2023-10-08T09:27:12;1.30;;;0.90;;
72095;SDS011;59968;51.084;16.748;2023-10-08T09:29:44;1.30;;;0.80;;
72095;SDS011;59968;51.084;16.748;2023-10-08T09:32:15;2.80;;;0.80;;
72095;SDS011;59968;51.084;16.748;2023-10-08T09:34:52;2.50;;;0.90;;
72095;SDS011;59968;51.084;16.748;2023-10-08T09:37:21;1.60;;;1.00;;
72095;SDS011;59968;51.084;16.748;2023-10-08T09:39:50;1.70;;;0.70;;
72095;SDS011;59968;51.084;16.748;2023-10-08T09:42:20;1.40;;;0.80;;
72095;SDS011;59968;51.084;16.748;2023-10-08T09:44:50;2.90;;;1.10;;
72095;SDS011;59968;51.084;16.748;2023-10-08T09:47:22;2.30;;;0.90;;
72095;SDS011;59968;51.084;16.748;2023-10-08T09:50:01;2.10;;;0.80;;
72095;SDS011;59968;51.084;16.748;2023-10-08T09:52:49;2.40;;;0.90;;
72095;SDS011;59968;51.084;16.748;2023-10-08T09:55:27;2.90;;;1.10;;
72095;SDS011;59968;51.084;16.748;2023-10-08T09:57:57;2.10;;;0.80;;
72095;SDS011;59968;51.084;16.748;2023-10-08T10:00:26;1.40;;;0.70;;
72095;SDS011;59968;51.084;16.748;2023-10-08T10:02:59;2.20;;;1.00;;
72095;SDS011;59968;51.084;16.748;2023-10-08T10:05:32;1.90;;;0.80;;
72095;SDS011;59968;51.084;16.748;2023-10-08T10:08:04;2.00;;;0.90;;
72095;SDS011;59968;51.084;16.748;2023-10-08T10:10:39;2.30;;;0.80;;
72095;SDS011;59968;51.084;16.748;2023-10-08T10:13:09;1.00;;;0.70;;
72095;SDS011;59968;51.084;16.748;2023-10-08T10:15:39;1.70;;;0.90;;
72095;SDS011;59968;51.084;16.748;2023-10-08T10:18:16;3.10;;;0.80;;
72095;SDS011;59968;51.084;16.748;2023-10-08T10:21:00;2.10;;;1.00;;
72095;SDS011;59968;51.084;16.748;2023-10-08T10:23:48;1.00;;;0.60;;
72095;SDS011;59968;51.084;16.748;2023-10-08T10:34:26;1.00;;;0.90;;
72095;SDS011;59968;51.084;16.748;2023-10-08T10:36:56;1.30;;;0.70;;
72095;SDS011;59968;51.084;16.748;2023-10-08T10:39:27;1.20;;;0.70;;
72095;SDS011;59968;51.084;16.748;2023-10-08T10:42:03;1.10;;;0.70;;
72095;SDS011;59968;51.084;16.748;2023-10-08T10:44:34;1.70;;;0.70;;
72095;SDS011;59968;51.084;16.748;2023-10-08T10:47:05;1.10;;;0.80;;
72095;SDS011;59968;51.084;16.748;2023-10-08T10:49:50;1.10;;;0.60;;
72095;SDS011;59968;51.084;16.748;2023-10-08T10:52:20;1.20;;;0.50;;
72095;SDS011;59968;51.084;16.748;2023-10-08T10:55:25;2.20;;;0.70;;
72095;SDS011;59968;51.084;16.748;2023-10-08T10:58:00;1.40;;;0.60;;
72095;SDS011;59968;51.084;16.748;2023-10-08T11:00:44;0.80;;;0.60;;
72095;SDS011;59968;51.084;16.748;2023-10-08T11:03:12;0.90;;;0.70;;
72095;SDS011;59968;51.084;16.748;2023-10-08T11:05:49;1.80;;;0.50;;
72095;SDS011;59968;51.084;16.748;2023-10-08T11:08:23;1.70;;;0.60;;
72095;SDS011;59968;51.084;16.748;2023-10-08T11:10:52;1.40;;;0.80;;
72095;SDS011;59968;51.084;16.748;2023-10-08T11:13:27;1.60;;;1.00;;
72095;SDS011;59968;51.084;16.748;2023-10-08T11:15:57;1.50;;;0.80;;
72095;SDS011;59968;51.084;16.748;2023-10-08T11:18:27;1.20;;;0.70;;
72095;SDS011;59968;51.084;16.748;2023-10-08T11:21:07;1.60;;;0.70;;
72095;SDS011;59968;51.084;16.748;2023-10-08T11:23:45;1.80;;;0.90;;
72095;SDS011;59968;51.084;16.748;2023-10-08T11:26:22;2.90;;;0.80;;
72095;SDS011;59968;51.084;16.748;2023-10-08T11:29:01;1.10;;;0.60;;
72095;SDS011;59968;51.084;16.748;2023-10-08T11:31:32;0.90;;;0.60;;
72095;SDS011;59968;51.084;16.748;2023-10-08T11:34:03;1.30;;;0.50;;
72095;SDS011;59968;51.084;16.748;2023-10-08T11:36:38;1.00;;;0.70;;
72095;SDS011;59968;51.084;16.748;2023-10-08T11:39:22;2.60;;;1.00;;
72095;SDS011;59968;51.084;16.748;2023-10-08T11:41:55;1.10;;;0.70;;
72095;SDS011;59968;51.084;16.748;2023-10-08T11:44:25;1.30;;;0.70;;
72095;SDS011;59968;51.084;16.748;2023-10-08T11:46:59;1.50;;;0.80;;
72095;SDS011;59968;51.084;16.748;2023-10-08T11:49:39;1.10;;;0.50;;
72095;SDS011;59968;51.084;16.748;2023-10-08T11:52:26;2.50;;;0.60;;
72095;SDS011;59968;51.084;16.748;2023-10-08T11:54:56;1.40;;;0.60;;
72095;SDS011;59968;51.084;16.748;2023-10-08T11:57:26;1.20;;;0.50;;
72095;SDS011;59968;51.084;16.748;2023-10-08T11:59:56;1.40;;;0.70;;
72095;SDS011;59968;51.084;16.748;2023-10-08T12:02:27;1.20;;;0.80;;
72095;SDS011;59968;51.084;16.748;2023-10-08T12:04:58;1.40;;;0.80;;
72095;SDS011;59968;51.084;16.748;2023-10-08T12:07:27;1.40;;;0.80;;
72095;SDS011;59968;51.084;16.748;2023-10-08T12:09:57;1.30;;;0.70;;
72095;SDS011;59968;51.084;16.748;2023-10-08T12:12:26;1.70;;;0.80;;
72095;SDS011;59968;51.084;16.748;2023-10-08T12:14:56;0.90;;;0.70;;
72095;SDS011;59968;51.084;16.748;2023-10-08T12:17:25;0.60;;;0.50;;
72095;SDS011;59968;51.084;16.748;2023-10-08T12:20:06;3.10;;;0.70;;
72095;SDS011;59968;51.084;16.748;2023-10-08T12:22:52;1.40;;;0.60;;
72095;SDS011;59968;51.084;16.748;2023-10-08T12:25:21;2.50;;;0.90;;
72095;SDS011;59968;51.084;16.748;2023-10-08T12:27:51;1.40;;;0.80;;
72095;SDS011;59968;51.084;16.748;2023-10-08T12:30:19;0.90;;;0.80;;
72095;SDS011;59968;51.084;16.748;2023-10-08T12:32:59;1.40;;;0.70;;
72095;SDS011;59968;51.084;16.748;2023-10-08T12:35:29;1.50;;;0.70;;
72095;SDS011;59968;51.084;16.748;2023-10-08T12:37:57;2.10;;;0.90;;
72095;SDS011;59968;51.084;16.748;2023-10-08T12:40:27;1.40;;;0.80;;
72095;SDS011;59968;51.084;16.748;2023-10-08T12:43:10;1.00;;;0.70;;
72095;SDS011;59968;51.084;16.748;2023-10-08T12:45:39;1.50;;;0.70;;
72095;SDS011;59968;51.084;16.748;2023-10-08T12:48:07;1.40;;;0.60;;
72095;SDS011;59968;51.084;16.748;2023-10-08T12:50:37;1.30;;;0.60;;
72095;SDS011;59968;51.084;16.748;2023-10-08T12:53:12;1.90;;;0.70;;
72095;SDS011;59968;51.084;16.748;2023-10-08T12:55:40;2.40;;;1.00;;
72095;SDS011;59968;51.084;16.748;2023-10-08T12:58:09;1.10;;;0.70;;
72095;SDS011;59968;51.084;16.748;2023-10-08T13:00:40;0.90;;;0.60;;
72095;SDS011;59968;51.084;16.748;2023-10-08T13:03:18;1.10;;;0.80;;
72095;SDS011;59968;51.084;16.748;2023-10-08T13:05:52;1.70;;;0.80;;
72095;SDS011;59968;51.084;16.748;2023-10-08T13:08:22;0.90;;;0.80;;
72095;SDS011;59968;51.084;16.748;2023-10-08T13:10:55;1.30;;;0.70;;
72095;SDS011;59968;51.084;16.748;2023-10-08T13:13:30;1.40;;;0.90;;
72095;SDS011;59968;51.084;16.748;2023-10-08T13:16:01;2.50;;;0.60;;
72095;SDS011;59968;51.084;16.748;2023-10-08T13:18:36;1.90;;;0.70;;
72095;SDS011;59968;51.084;16.748;2023-10-08T13:21:06;0.80;;;0.60;;
72095;SDS011;59968;51.084;16.748;2023-10-08T13:23:36;0.70;;;0.70;;
72095;SDS011;59968;51.084;16.748;2023-10-08T13:26:06;1.10;;;0.70;;
72095;SDS011;59968;51.084;16.748;2023-10-08T13:28:36;1.90;;;0.70;;
72095;SDS011;59968;51.084;16.748;2023-10-08T13:31:07;1.90;;;0.60;;
72095;SDS011;59968;51.084;16.748;2023-10-08T13:33:40;1.20;;;0.70;;
72095;SDS011;59968;51.084;16.748;2023-10-08T13:36:18;1.20;;;0.70;;
72095;SDS011;59968;51.084;16.748;2023-10-08T13:38:53;1.20;;;0.60;;
72095;SDS011;59968;51.084;16.748;2023-10-08T13:41:25;1.30;;;0.80;;
72095;SDS011;59968;51.084;16.748;2023-10-08T13:43:59;1.50;;;0.70;;
72095;SDS011;59968;51.084;16.748;2023-10-08T13:46:35;1.30;;;0.80;;
72095;SDS011;59968;51.084;16.748;2023-10-08T13:49:12;1.50;;;0.70;;
72095;SDS011;59968;51.084;16.748;2023-10-08T13:51:42;0.80;;;0.50;;
72095;SDS011;59968;51.084;16.748;2023-10-08T13:54:12;1.40;;;0.60;;
72095;SDS011;59968;51.084;16.748;2023-10-08T13:56:44;1.50;;;0.60;;
72095;SDS011;59968;51.084;16.748;2023-10-08T13:59:17;0.50;;;0.50;;
72095;SDS011;59968;51.084;16.748;2023-10-08T14:01:49;1.10;;;0.80;;
72095;SDS011;59968;51.084;16.748;2023-10-08T14:04:23;1.90;;;0.70;;
72095;SDS011;59968;51.084;16.748;2023-10-08T14:06:59;1.40;;;0.60;;
72095;SDS011;59968;51.084;16.748;2023-10-08T14:09:29;1.10;;;0.70;;
72095;SDS011;59968;51.084;16.748;2023-10-08T14:12:06;1.50;;;0.70;;
72095;SDS011;59968;51.084;16.748;2023-10-08T14:14:37;1.50;;;0.60;;
72095;SDS011;59968;51.084;16.748;2023-10-08T14:17:12;0.60;;;0.50;;
72095;SDS011;59968;51.084;16.748;2023-10-08T14:19:43;1.70;;;0.60;;
72095;SDS011;59968;51.084;16.748;2023-10-08T14:22:16;1.20;;;0.70;;
72095;SDS011;59968;51.084;16.748;2023-10-08T14:24:48;1.10;;;0.60;;
72095;SDS011;59968;51.084;16.748;2023-10-08T14:27:29;1.30;;;0.60;;
72095;SDS011;59968;51.084;16.748;2023-10-08T14:30:08;1.50;;;0.90;;
72095;SDS011;59968;51.084;16.748;2023-10-08T14:32:51;1.00;;;0.70;;
72095;SDS011;59968;51.084;16.748;2023-10-08T14:35:20;1.20;;;0.80;;
72095;SDS011;59968;51.084;16.748;2023-10-08T14:38:08;1.30;;;1.10;;
72095;SDS011;59968;51.084;16.748;2023-10-08T14:40:55;1.20;;;0.60;;
72095;SDS011;59968;51.084;16.748;2023-10-08T14:43:43;1.70;;;0.60;;
72095;SDS011;59968;51.084;16.748;2023-10-08T14:46:12;1.20;;;0.80;;
72095;SDS011;59968;51.084;16.748;2023-10-08T14:48:43;1.00;;;0.80;;
72095;SDS011;59968;51.084;16.748;2023-10-08T14:51:12;0.80;;;0.60;;
72095;SDS011;59968;51.084;16.748;2023-10-08T14:53:48;0.90;;;0.70;;
72095;SDS011;59968;51.084;16.748;2023-10-08T14:56:17;1.70;;;0.90;;
72095;SDS011;59968;51.084;16.748;2023-10-08T14:58:48;1.40;;;0.60;;
72095;SDS011;59968;51.084;16.748;2023-10-08T15:01:17;1.30;;;0.60;;
72095;SDS011;59968;51.084;16.748;2023-10-08T15:03:46;1.20;;;1.00;;
72095;SDS011;59968;51.084;16.748;2023-10-08T15:06:15;0.80;;;0.60;;
72095;SDS011;59968;51.084;16.748;2023-10-08T15:08:46;1.30;;;0.70;;
72095;SDS011;59968;51.084;16.748;2023-10-08T15:11:15;2.20;;;0.80;;
72095;SDS011;59968;51.084;16.748;2023-10-08T15:13:45;3.30;;;0.60;;
72095;SDS011;59968;51.084;16.748;2023-10-08T15:16:15;1.00;;;0.70;;
72095;SDS011;59968;51.084;16.748;2023-10-08T15:18:44;1.40;;;0.70;;
72095;SDS011;59968;51.084;16.748;2023-10-08T15:21:13;1.50;;;0.50;;